Time;durP1;ratioP1;P1;durP2;ratioP2;P2;SDS_P1;SDS_P2;PMS_P1;PMS_P2;Temp;Humidity;BMP_temperature;BMP_pressure;BME280_temperature;BME280_humidity;BME280_pressure;Samples;Min_cycle;Max_cycle;Signal;HPM_P1;HPM_P2
2022/07/06 00:01:02;;;;;;;9.02;3.65;;;;;;;;;;4858479;29;20053;-73
2022/07/06 00:03:33;;;;;;;8.93;4.25;;;;;;;;;;4858716;29;20065;-73
2022/07/06 00:06:03;;;;;;;9.23;3.90;;;;;;;;;;4858516;29;20065;-73
2022/07/06 00:08:33;;;;;;;11.13;3.95;;;;;;;;;;4858372;29;20061;-73
2022/07/06 00:11:04;;;;;;;7.63;3.78;;;;;;;;;;4858382;29;20068;-73
2022/07/06 00:13:35;;;;;;;10.52;3.92;;;;;;;;;;4858951;29;20644;-73
2022/07/06 00:16:05;;;;;;;8.82;3.35;;;;;;;;;;4858402;29;20056;-73
2022/07/06 00:18:35;;;;;;;9.50;4.18;;;;;;;;;;4858685;29;20054;-73
2022/07/06 00:21:06;;;;;;;11.68;4.38;;;;;;;;;;4876928;29;20064;-73
2022/07/06 00:23:37;;;;;;;10.90;4.30;;;;;;;;;;4886192;29;20421;-73
2022/07/06 00:26:07;;;;;;;12.30;4.93;;;;;;;;;;4895550;29;20758;-73
2022/07/06 00:28:38;;;;;;;9.63;3.92;;;;;;;;;;4880604;29;20498;-73
2022/07/06 00:31:08;;;;;;;10.80;3.80;;;;;;;;;;4895444;29;20063;-73
2022/07/06 00:33:39;;;;;;;14.13;4.22;;;;;;;;;;4864148;29;20498;-73
2022/07/06 00:36:11;;;;;;;9.35;3.78;;;;;;;;;;4895474;29;20060;-72
2022/07/06 00:38:41;;;;;;;8.77;3.50;;;;;;;;;;4873728;29;20512;-73
2022/07/06 00:41:14;;;;;;;8.38;3.92;;;;;;;;;;4894900;29;20068;-73
2022/07/06 00:43:56;;;;;;;10.82;3.92;;;;;;;;;;4876195;29;20060;-74
2022/07/06 00:46:33;;;;;;;9.73;3.83;;;;;;;;;;4876315;29;20057;-74
2022/07/06 00:49:04;;;;;;;8.52;3.70;;;;;;;;;;4876389;29;20065;-73
2022/07/06 00:51:37;;;;;;;8.32;3.85;;;;;;;;;;4812086;29;20041;-72
2022/07/06 00:54:08;;;;;;;9.25;3.78;;;;;;;;;;4858076;29;20584;-74
2022/07/06 00:56:38;;;;;;;9.02;3.75;;;;;;;;;;4857591;29;20061;-74
2022/07/06 00:59:08;;;;;;;9.45;4.15;;;;;;;;;;4857806;29;20152;-74
2022/07/06 01:01:39;;;;;;;9.30;3.42;;;;;;;;;;4857892;29;20062;-72
2022/07/06 01:04:09;;;;;;;9.98;3.83;;;;;;;;;;4808542;29;20164;-71
2022/07/06 01:06:41;;;;;;;11.50;3.70;;;;;;;;;;4853734;29;20054;-72
2022/07/06 01:09:11;;;;;;;8.95;4.10;;;;;;;;;;4823999;29;20062;-71
2022/07/06 01:11:41;;;;;;;6.88;3.65;;;;;;;;;;4843049;29;20573;-72
2022/07/06 01:14:14;;;;;;;7.47;2.92;;;;;;;;;;4841733;29;20057;-73
2022/07/06 01:16:45;;;;;;;10.60;3.75;;;;;;;;;;4790199;29;20043;-73
2022/07/06 01:19:15;;;;;;;11.00;3.63;;;;;;;;;;4790891;29;20054;-73
2022/07/06 01:21:46;;;;;;;12.05;4.07;;;;;;;;;;4832456;29;20518;-73
2022/07/06 01:24:16;;;;;;;12.60;3.70;;;;;;;;;;4802245;29;20051;-73
2022/07/06 01:26:46;;;;;;;10.20;3.67;;;;;;;;;;4772563;29;20059;-73
2022/07/06 01:29:17;;;;;;;8.43;3.78;;;;;;;;;;4817498;29;20054;-73
2022/07/06 01:31:49;;;;;;;10.23;3.85;;;;;;;;;;4802199;29;20047;-71
2022/07/06 01:34:20;;;;;;;9.45;3.88;;;;;;;;;;4802489;29;20065;-72
2022/07/06 01:36:51;;;;;;;13.43;3.47;;;;;;;;;;4787128;29;20794;-71
2022/07/06 01:39:22;;;;;;;10.50;3.75;;;;;;;;;;4757825;29;20058;-72
2022/07/06 01:41:52;;;;;;;7.25;3.67;;;;;;;;;;4781414;29;20061;-72
2022/07/06 01:44:22;;;;;;;9.18;3.38;;;;;;;;;;4802011;29;20074;-72
2022/07/06 01:46:54;;;;;;;7.53;3.42;;;;;;;;;;4802090;29;20062;-72
2022/07/06 01:49:24;;;;;;;12.07;3.95;;;;;;;;;;4786665;29;20051;-71
2022/07/06 01:51:55;;;;;;;15.50;3.60;;;;;;;;;;4783693;29;20605;-72
2022/07/06 01:54:25;;;;;;;8.88;3.92;;;;;;;;;;4763262;29;20066;-72
2022/07/06 01:56:55;;;;;;;6.32;3.33;;;;;;;;;;4801609;29;20059;-72
2022/07/06 01:59:27;;;;;;;9.40;3.90;;;;;;;;;;4798340;29;20456;-71
2022/07/06 02:01:57;;;;;;;10.10;3.83;;;;;;;;;;4793234;29;20070;-71
2022/07/06 02:04:28;;;;;;;9.48;4.13;;;;;;;;;;4801778;29;20062;-72
2022/07/06 02:06:59;;;;;;;13.15;4.05;;;;;;;;;;4801675;29;20066;-71
2022/07/06 02:09:29;;;;;;;17.25;4.63;;;;;;;;;;4786479;29;20063;-72
2022/07/06 02:12:02;;;;;;;12.85;3.85;;;;;;;;;;4819898;29;20058;-73
2022/07/06 02:14:33;;;;;;;7.35;3.40;;;;;;;;;;4775106;29;20054;-72
2022/07/06 02:17:03;;;;;;;8.32;3.15;;;;;;;;;;4820091;29;20058;-72
2022/07/06 02:19:35;;;;;;;9.77;3.42;;;;;;;;;;4760118;30;20064;-72
2022/07/06 02:22:07;;;;;;;8.85;3.80;;;;;;;;;;4744633;30;20065;-72
2022/07/06 02:24:37;;;;;;;10.18;3.50;;;;;;;;;;4736303;30;20057;-72
2022/07/06 02:27:07;;;;;;;10.10;3.63;;;;;;;;;;4754928;30;20064;-73
2022/07/06 02:29:38;;;;;;;10.88;4.05;;;;;;;;;;4789492;30;20055;-72
2022/07/06 02:32:08;;;;;;;13.45;4.18;;;;;;;;;;4799082;29;20432;-72
2022/07/06 02:34:39;;;;;;;11.63;3.90;;;;;;;;;;4792097;29;20051;-72
2022/07/06 02:37:10;;;;;;;13.18;4.00;;;;;;;;;;4817430;29;20067;-72
2022/07/06 02:39:40;;;;;;;9.10;4.05;;;;;;;;;;4825554;29;20069;-72
2022/07/06 02:42:11;;;;;;;11.82;4.57;;;;;;;;;;4826000;29;20066;-73
2022/07/06 02:44:41;;;;;;;9.38;3.90;;;;;;;;;;4789106;29;20055;-72
2022/07/06 02:47:11;;;;;;;11.85;3.95;;;;;;;;;;4789683;29;20063;-72
2022/07/06 02:49:42;;;;;;;12.40;3.75;;;;;;;;;;4789475;29;20420;-72
2022/07/06 02:52:12;;;;;;;9.50;4.05;;;;;;;;;;4789644;29;20508;-72
2022/07/06 02:54:42;;;;;;;10.85;4.78;;;;;;;;;;4789570;29;20063;-72
2022/07/06 02:57:12;;;;;;;9.65;3.88;;;;;;;;;;4788436;29;20479;-72
2022/07/06 02:59:45;;;;;;;11.60;4.30;;;;;;;;;;4843686;29;20057;-72
2022/07/06 03:02:18;;;;;;;7.70;3.85;;;;;;;;;;4861989;29;20049;-72
2022/07/06 03:04:50;;;;;;;11.88;3.88;;;;;;;;;;4862436;29;20057;-72
2022/07/06 03:07:20;;;;;;;9.43;4.28;;;;;;;;;;4808053;29;20081;-72
2022/07/06 03:09:50;;;;;;;11.40;4.07;;;;;;;;;;4794818;29;20058;-72
2022/07/06 03:12:21;;;;;;;11.13;3.63;;;;;;;;;;4828208;29;20161;-72
2022/07/06 03:14:51;;;;;;;11.20;3.92;;;;;;;;;;4834328;29;20067;-72
2022/07/06 03:17:21;;;;;;;7.93;3.35;;;;;;;;;;4844393;29;20099;-72
2022/07/06 03:19:53;;;;;;;10.55;3.83;;;;;;;;;;4792086;29;20073;-72
2022/07/06 03:22:24;;;;;;;9.18;3.75;;;;;;;;;;4807433;29;20058;-71
2022/07/06 03:24:55;;;;;;;10.75;3.85;;;;;;;;;;4807014;29;20508;-71
2022/07/06 03:27:26;;;;;;;13.93;4.25;;;;;;;;;;4806930;29;20054;-71
2022/07/06 03:29:56;;;;;;;12.57;4.55;;;;;;;;;;4805644;29;20067;-71
2022/07/06 03:32:26;;;;;;;11.40;4.28;;;;;;;;;;4789101;29;20066;-71
2022/07/06 03:34:57;;;;;;;11.63;4.30;;;;;;;;;;4822132;29;20658;-72
2022/07/06 03:37:28;;;;;;;10.13;4.43;;;;;;;;;;4797518;29;20558;-72
2022/07/06 03:39:59;;;;;;;9.32;4.50;;;;;;;;;;4812742;29;20058;-72
2022/07/06 03:42:29;;;;;;;9.27;4.40;;;;;;;;;;4803949;29;20062;-72
2022/07/06 03:45:00;;;;;;;10.23;4.43;;;;;;;;;;4821970;29;20162;-71
2022/07/06 03:47:31;;;;;;;9.30;3.70;;;;;;;;;;4768100;29;20413;-71
2022/07/06 03:50:03;;;;;;;10.05;4.28;;;;;;;;;;4812515;29;20066;-72
2022/07/06 03:52:39;;;;;;;12.02;5.20;;;;;;;;;;4803819;29;20098;-72
2022/07/06 03:55:11;;;;;;;10.20;3.70;;;;;;;;;;4821508;29;20194;-72
2022/07/06 03:57:47;;;;;;;13.20;3.83;;;;;;;;;;4800668;29;20401;-71
2022/07/06 04:00:22;;;;;;;8.10;3.75;;;;;;;;;;4815516;29;20066;-71
2022/07/06 04:03:00;;;;;;;10.02;4.20;;;;;;;;;;4791730;29;20066;-72
2022/07/06 04:05:36;;;;;;;7.13;3.45;;;;;;;;;;4785714;30;20059;-72
2022/07/06 04:08:07;;;;;;;7.20;3.75;;;;;;;;;;4803420;29;20058;-72
2022/07/06 04:10:43;;;;;;;11.32;3.53;;;;;;;;;;4803399;29;20058;-72
2022/07/06 04:13:14;;;;;;;11.02;4.25;;;;;;;;;;4803334;29;20050;-71
2022/07/06 04:15:44;;;;;;;9.48;3.95;;;;;;;;;;4773919;29;20082;-72
2022/07/06 04:18:15;;;;;;;12.80;3.80;;;;;;;;;;4790360;29;20532;-72
2022/07/06 04:20:50;;;;;;;8.65;3.72;;;;;;;;;;4739709;30;20071;-72
2022/07/06 04:23:21;;;;;;;12.20;3.88;;;;;;;;;;4792816;29;20048;-72
2022/07/06 04:25:52;;;;;;;11.65;4.05;;;;;;;;;;4738238;30;20098;-72
2022/07/06 04:28:22;;;;;;;9.45;3.78;;;;;;;;;;4787985;29;20050;-72
2022/07/06 04:30:53;;;;;;;10.82;3.90;;;;;;;;;;4789097;29;20169;-72
2022/07/06 04:33:25;;;;;;;10.05;4.45;;;;;;;;;;4798776;29;20062;-72
2022/07/06 04:35:55;;;;;;;10.48;3.78;;;;;;;;;;4821002;29;20443;-72
2022/07/06 04:38:32;;;;;;;12.30;4.25;;;;;;;;;;4802862;29;20054;-70
2022/07/06 04:41:06;;;;;;;7.15;3.45;;;;;;;;;;4778619;29;20070;-71
2022/07/06 04:43:37;;;;;;;11.48;4.30;;;;;;;;;;4755861;30;20064;-72
2022/07/06 04:46:10;;;;;;;13.02;3.90;;;;;;;;;;4797010;29;20181;-72
2022/07/06 04:48:43;;;;;;;8.75;3.90;;;;;;;;;;4788109;29;20057;-72
2022/07/06 04:51:20;;;;;;;7.10;3.70;;;;;;;;;;4823462;29;20069;-72
2022/07/06 04:53:50;;;;;;;8.15;3.35;;;;;;;;;;4835562;29;20050;-72
2022/07/06 04:56:22;;;;;;;10.15;3.80;;;;;;;;;;4839089;29;20055;-72
2022/07/06 04:58:53;;;;;;;8.10;3.50;;;;;;;;;;4808694;29;20050;-72
2022/07/06 05:01:25;;;;;;;8.07;4.15;;;;;;;;;;4815183;29;20077;-72
2022/07/06 05:03:56;;;;;;;8.00;3.53;;;;;;;;;;4838794;29;20540;-72
2022/07/06 05:06:26;;;;;;;8.40;3.83;;;;;;;;;;4796206;29;20054;-71
2022/07/06 05:08:59;;;;;;;8.40;3.65;;;;;;;;;;4805560;29;20054;-72
2022/07/06 05:11:34;;;;;;;8.10;3.55;;;;;;;;;;4791496;29;20564;-73
2022/07/06 05:14:06;;;;;;;6.43;3.25;;;;;;;;;;4794014;29;20066;-73
2022/07/06 05:16:36;;;;;;;8.77;3.38;;;;;;;;;;4743152;30;20060;-73
2022/07/06 05:19:07;;;;;;;7.85;3.53;;;;;;;;;;4766590;30;20067;-72
2022/07/06 05:21:37;;;;;;;10.02;3.42;;;;;;;;;;4769262;30;20048;-73
2022/07/06 05:24:10;;;;;;;8.10;3.10;;;;;;;;;;4784022;29;20063;-72
2022/07/06 05:26:40;;;;;;;6.85;3.50;;;;;;;;;;4784384;29;20084;-72
2022/07/06 05:29:11;;;;;;;7.47;3.45;;;;;;;;;;4766620;29;20098;-72
2022/07/06 05:31:42;;;;;;;9.15;3.78;;;;;;;;;;4766167;30;20452;-72
2022/07/06 05:34:13;;;;;;;6.40;3.25;;;;;;;;;;4756158;30;20171;-72
2022/07/06 05:36:43;;;;;;;8.38;3.65;;;;;;;;;;4748667;30;20068;-72
2022/07/06 05:39:19;;;;;;;7.03;3.60;;;;;;;;;;4748332;30;20049;-72
2022/07/06 05:41:50;;;;;;;7.32;3.22;;;;;;;;;;4763267;30;20052;-72
2022/07/06 05:44:21;;;;;;;7.20;3.15;;;;;;;;;;4748637;30;20076;-72
2022/07/06 05:50:11;;;;;;;6.88;3.70;;;;;;;;;;4748230;30;20167;-72
2022/07/06 05:52:33;;;;;;;7.85;3.75;;;;;;;;;;4745246;30;20052;-72
2022/07/06 05:55:04;;;;;;;9.15;3.13;;;;;;;;;;4747755;30;20059;-72
2022/07/06 05:57:35;;;;;;;6.30;3.25;;;;;;;;;;4747997;30;20056;-72
2022/07/06 06:00:06;;;;;;;8.48;3.30;;;;;;;;;;4733514;30;20184;-72
2022/07/06 06:02:44;;;;;;;7.97;3.47;;;;;;;;;;4732025;30;20064;-73
2022/07/06 06:05:18;;;;;;;9.90;3.38;;;;;;;;;;4757645;30;20425;-73
2022/07/06 06:07:58;;;;;;;8.10;3.78;;;;;;;;;;4730207;30;20056;-72
2022/07/06 06:10:29;;;;;;;10.70;3.85;;;;;;;;;;4745098;30;20056;-72
2022/07/06 06:13:04;;;;;;;7.80;3.85;;;;;;;;;;4730332;30;20076;-73
2022/07/06 06:15:35;;;;;;;8.18;3.25;;;;;;;;;;4730268;30;20098;-72
2022/07/06 06:18:07;;;;;;;10.07;4.00;;;;;;;;;;4730238;30;20064;-72
2022/07/06 06:20:37;;;;;;;9.60;3.35;;;;;;;;;;4730608;30;20077;-72
2022/07/06 06:23:07;;;;;;;11.32;3.83;;;;;;;;;;4730408;30;20065;-72
2022/07/06 06:25:39;;;;;;;7.82;3.40;;;;;;;;;;4697328;30;20092;-72
2022/07/06 06:28:11;;;;;;;10.30;3.58;;;;;;;;;;4709767;30;20065;-72
2022/07/06 06:30:41;;;;;;;;;;;;;;;;;;4737844;30;20067;-72
2022/07/06 06:33:20;;;;;;;11.60;3.55;;;;;;;;;;4765488;30;19926;-72
2022/07/06 06:35:52;;;;;;;8.85;3.95;;;;;;;;;;4765917;30;20067;-72
2022/07/06 06:38:27;;;;;;;9.23;3.88;;;;;;;;;;4768801;30;20063;-71
2022/07/06 06:40:58;;;;;;;6.88;3.45;;;;;;;;;;4783697;30;20063;-73
2022/07/06 06:43:28;;;;;;;7.43;3.38;;;;;;;;;;4804082;29;20046;-71
2022/07/06 06:46:16;;;;;;;10.80;3.50;;;;;;;;;;4791872;29;20054;-72
2022/07/06 06:48:47;;;;;;;9.02;3.78;;;;;;;;;;4819827;29;20083;-72
2022/07/06 06:51:17;;;;;;;8.13;4.32;;;;;;;;;;4776333;29;20069;-71
2022/07/06 06:53:48;;;;;;;9.88;3.70;;;;;;;;;;4814834;29;20054;-73
2022/07/06 06:56:18;;;;;;;8.80;4.00;;;;;;;;;;4848119;29;20068;-73
2022/07/06 06:58:48;;;;;;;8.55;3.42;;;;;;;;;;4807568;29;20066;-72
2022/07/06 07:01:39;;;;;;;9.60;3.70;;;;;;;;;;4838183;29;20441;-72
2022/07/06 07:04:09;;;;;;;9.85;3.85;;;;;;;;;;4852858;29;20069;-72
2022/07/06 07:06:40;;;;;;;7.82;3.45;;;;;;;;;;4858393;29;20054;-72
2022/07/06 07:09:10;;;;;;;8.63;3.28;;;;;;;;;;4859793;29;20062;-72
2022/07/06 07:11:41;;;;;;;8.05;3.60;;;;;;;;;;4875471;29;20416;-72
2022/07/06 07:14:11;;;;;;;11.85;4.13;;;;;;;;;;4877953;29;20053;-72
2022/07/06 07:16:41;;;;;;;12.50;4.28;;;;;;;;;;4878212;29;20064;-72
2022/07/06 07:19:11;;;;;;;12.35;4.15;;;;;;;;;;4896684;29;20056;-72
2022/07/06 07:21:42;;;;;;;10.48;3.95;;;;;;;;;;4882884;29;20057;-72
2022/07/06 07:24:12;;;;;;;7.93;4.75;;;;;;;;;;4846940;29;20433;-71
2022/07/06 07:26:42;;;;;;;9.27;4.05;;;;;;;;;;4825457;29;20046;-72
2022/07/06 07:29:12;;;;;;;12.13;3.97;;;;;;;;;;4840958;29;20058;-72
2022/07/06 07:31:43;;;;;;;9.98;4.40;;;;;;;;;;4840987;29;20054;-72
2022/07/06 07:34:13;;;;;;;10.95;4.07;;;;;;;;;;4822123;29;20504;-72
2022/07/06 07:36:43;;;;;;;7.72;3.70;;;;;;;;;;4822325;29;20062;-72
2022/07/06 07:39:14;;;;;;;7.72;3.60;;;;;;;;;;4822257;29;20079;-72
2022/07/06 07:41:44;;;;;;;7.93;3.92;;;;;;;;;;4792160;29;20090;-71
2022/07/06 07:44:15;;;;;;;10.63;3.85;;;;;;;;;;4831155;29;20069;-72
2022/07/06 07:46:45;;;;;;;6.82;3.33;;;;;;;;;;4810195;29;20069;-72
2022/07/06 07:49:15;;;;;;;8.25;3.85;;;;;;;;;;4825689;29;20061;-72
2022/07/06 07:51:50;;;;;;;8.20;3.90;;;;;;;;;;4840736;29;20077;-71
2022/07/06 07:54:20;;;;;;;9.68;3.97;;;;;;;;;;4785730;29;20528;-72
2022/07/06 07:56:51;;;;;;;7.60;3.15;;;;;;;;;;4741671;29;20071;-71
2022/07/06 07:59:22;;;;;;;7.10;3.25;;;;;;;;;;4800444;29;20070;-72
2022/07/06 08:01:53;;;;;;;9.23;3.85;;;;;;;;;;4770890;29;20062;-71
2022/07/06 08:04:23;;;;;;;7.25;3.45;;;;;;;;;;4804108;29;20413;-72
2022/07/06 08:06:54;;;;;;;5.95;3.47;;;;;;;;;;4821982;29;20189;-71
2022/07/06 08:09:29;;;;;;;14.75;3.92;;;;;;;;;;4821814;29;20055;-72
2022/07/06 08:12:00;;;;;;;7.25;3.55;;;;;;;;;;4805471;29;20065;-71
2022/07/06 08:14:31;;;;;;;7.10;3.58;;;;;;;;;;4821818;29;20058;-72
2022/07/06 08:17:02;;;;;;;10.25;3.58;;;;;;;;;;4839385;29;20045;-72
2022/07/06 08:19:33;;;;;;;7.13;3.55;;;;;;;;;;4840151;29;20556;-72
2022/07/06 08:22:07;;;;;;;7.72;3.17;;;;;;;;;;4840246;29;20058;-72
2022/07/06 08:24:37;;;;;;;9.48;3.55;;;;;;;;;;4840166;29;20073;-71
2022/07/06 08:27:08;;;;;;;6.82;3.50;;;;;;;;;;4840021;29;20078;-71
2022/07/06 08:29:39;;;;;;;8.48;3.13;;;;;;;;;;4803159;29;20519;-72
2022/07/06 08:32:11;;;;;;;11.80;4.30;;;;;;;;;;4824424;29;20058;-71
2022/07/06 08:34:58;;;;;;;7.13;3.45;;;;;;;;;;4839913;29;20077;-71
2022/07/06 08:37:28;;;;;;;6.20;3.08;;;;;;;;;;4840007;29;20058;-71
2022/07/06 08:39:58;;;;;;;14.93;3.70;;;;;;;;;;4814531;29;20058;-71
2022/07/06 08:42:35;;;;;;;8.75;3.10;;;;;;;;;;4803346;29;20066;-71
2022/07/06 08:45:07;;;;;;;9.38;3.13;;;;;;;;;;4803394;29;20055;-71
2022/07/06 08:47:38;;;;;;;10.77;3.10;;;;;;;;;;4821245;29;20050;-71
2022/07/06 08:50:10;;;;;;;6.50;3.42;;;;;;;;;;4776832;29;20066;-71
2022/07/06 08:52:40;;;;;;;8.93;3.40;;;;;;;;;;4821397;29;20055;-71
2022/07/06 08:55:12;;;;;;;8.48;3.08;;;;;;;;;;4834081;29;20096;-70
2022/07/06 08:57:45;;;;;;;5.80;2.83;;;;;;;;;;4839507;29;20384;-71
2022/07/06 09:00:16;;;;;;;9.52;3.20;;;;;;;;;;4839338;29;20057;-71
2022/07/06 09:02:50;;;;;;;7.55;3.33;;;;;;;;;;4839462;29;20054;-71
2022/07/06 09:05:23;;;;;;;7.63;3.25;;;;;;;;;;4839524;29;20434;-72
2022/07/06 09:07:54;;;;;;;6.90;3.42;;;;;;;;;;4848346;29;20057;-71
2022/07/06 09:10:28;;;;;;;8.35;3.05;;;;;;;;;;4857942;29;20068;-71
2022/07/06 09:13:09;;;;;;;8.30;2.88;;;;;;;;;;4827222;29;20498;-71
2022/07/06 09:15:40;;;;;;;7.50;3.25;;;;;;;;;;4842656;29;20057;-71
2022/07/06 09:18:10;;;;;;;7.05;3.03;;;;;;;;;;4838836;29;20053;-70
2022/07/06 09:20:44;;;;;;;6.32;3.03;;;;;;;;;;4824428;29;20073;-71
2022/07/06 09:23:17;;;;;;;7.95;2.55;;;;;;;;;;4838934;29;20058;-71
2022/07/06 09:25:49;;;;;;;6.50;2.42;;;;;;;;;;4821695;29;20057;-71
2022/07/06 09:28:19;;;;;;;6.55;2.80;;;;;;;;;;4856809;29;20494;-71
2022/07/06 09:30:55;;;;;;;6.55;3.00;;;;;;;;;;4857434;29;20057;-71
2022/07/06 09:33:34;;;;;;;6.25;3.05;;;;;;;;;;4826712;29;20053;-71
2022/07/06 09:36:08;;;;;;;6.15;2.75;;;;;;;;;;4857424;29;20105;-71
2022/07/06 09:38:38;;;;;;;10.93;3.40;;;;;;;;;;4857235;29;20080;-71
2022/07/06 09:41:08;;;;;;;7.65;3.50;;;;;;;;;;4857364;29;20404;-72
2022/07/06 09:43:39;;;;;;;7.38;3.40;;;;;;;;;;4857145;29;20088;-71
2022/07/06 09:46:09;;;;;;;8.20;3.05;;;;;;;;;;4840455;29;20061;-71
2022/07/06 09:48:41;;;;;;;7.50;3.03;;;;;;;;;;4856688;29;20095;-71
2022/07/06 09:51:15;;;;;;;7.78;3.15;;;;;;;;;;4811677;29;20502;-71
2022/07/06 09:53:53;;;;;;;8.30;3.42;;;;;;;;;;4838139;29;20062;-71
2022/07/06 09:56:37;;;;;;;7.85;2.92;;;;;;;;;;4822717;29;20062;-71
2022/07/06 09:59:16;;;;;;;7.82;3.30;;;;;;;;;;4856839;29;20167;-71
2022/07/06 10:01:46;;;;;;;6.50;2.72;;;;;;;;;;4857165;29;20072;-71
2022/07/06 10:04:18;;;;;;;6.82;3.13;;;;;;;;;;4856788;29;20057;-71
2022/07/06 10:06:49;;;;;;;9.82;3.20;;;;;;;;;;4856695;29;20071;-71
2022/07/06 10:09:22;;;;;;;9.27;3.35;;;;;;;;;;4856846;29;20056;-71
2022/07/06 10:11:57;;;;;;;9.38;3.60;;;;;;;;;;4805060;29;20050;-71
2022/07/06 10:14:30;;;;;;;10.30;3.80;;;;;;;;;;4805327;29;20253;-70
2022/07/06 10:17:06;;;;;;;8.10;2.95;;;;;;;;;;4782508;30;20056;-70
2022/07/06 10:19:38;;;;;;;6.25;3.42;;;;;;;;;;4797969;29;20059;-70
2022/07/06 10:22:08;;;;;;;10.00;4.32;;;;;;;;;;4769124;30;20082;-71
2022/07/06 10:24:43;;;;;;;10.93;3.67;;;;;;;;;;4783880;30;20059;-71
2022/07/06 10:27:16;;;;;;;13.75;3.50;;;;;;;;;;4813509;29;20526;-71
2022/07/06 10:29:47;;;;;;;7.88;3.63;;;;;;;;;;4801772;29;20054;-70
2022/07/06 10:32:20;;;;;;;9.30;3.40;;;;;;;;;;4801788;29;20058;-71
2022/07/06 10:34:50;;;;;;;8.02;3.83;;;;;;;;;;4803187;29;20060;-71
2022/07/06 10:37:28;;;;;;;8.25;3.45;;;;;;;;;;4819775;29;20069;-70
2022/07/06 10:42:54;;;;;;;9.45;3.33;;;;;;;;;;4823591;29;20089;-71
2022/07/06 10:45:30;;;;;;;8.60;3.60;;;;;;;;;;4793336;29;20062;-71
2022/07/06 10:48:12;;;;;;;8.85;3.22;;;;;;;;;;4778386;29;20062;-71
2022/07/06 10:50:50;;;;;;;10.10;3.58;;;;;;;;;;4859447;29;20068;-71
2022/07/06 10:53:25;;;;;;;7.28;3.60;;;;;;;;;;4829466;29;20058;-71
2022/07/06 10:55:57;;;;;;;11.35;3.75;;;;;;;;;;4897143;29;20044;-71
2022/07/06 10:58:42;;;;;;;10.93;3.97;;;;;;;;;;4867066;29;20060;-71
2022/07/06 11:01:14;;;;;;;9.57;3.67;;;;;;;;;;4874652;29;20510;-70
2022/07/06 11:03:57;;;;;;;12.73;4.30;;;;;;;;;;4845221;29;20072;-70
2022/07/06 11:06:27;;;;;;;13.15;4.60;;;;;;;;;;4810762;29;20046;-70
2022/07/06 11:08:59;;;;;;;14.43;4.72;;;;;;;;;;4841236;29;20062;-71
2022/07/06 11:11:35;;;;;;;11.60;4.35;;;;;;;;;;4826113;29;20502;-71
2022/07/06 11:14:10;;;;;;;10.73;4.75;;;;;;;;;;4841186;29;20061;-71
2022/07/06 11:16:49;;;;;;;9.13;4.38;;;;;;;;;;4840840;29;20065;-71
2022/07/06 11:19:24;;;;;;;15.70;5.50;;;;;;;;;;4841022;29;20435;-70
2022/07/06 11:22:08;;;;;;;10.90;4.68;;;;;;;;;;4810963;29;20057;-70
2022/07/06 11:24:41;;;;;;;13.43;5.93;;;;;;;;;;4795485;29;20065;-70
2022/07/06 11:27:12;;;;;;;15.23;5.45;;;;;;;;;;4822286;29;20523;-71
2022/07/06 11:29:42;;;;;;;12.95;5.40;;;;;;;;;;4770985;29;20063;-70
2022/07/06 11:32:14;;;;;;;11.45;5.63;;;;;;;;;;4786465;29;20066;-71
2022/07/06 11:34:45;;;;;;;16.55;5.95;;;;;;;;;;4756776;29;20052;-71
2022/07/06 11:37:17;;;;;;;22.60;7.57;;;;;;;;;;4804310;29;21022;-71
2022/07/06 11:39:48;;;;;;;18.40;6.95;;;;;;;;;;4805271;29;20055;-71
2022/07/06 11:42:23;;;;;;;16.85;7.20;;;;;;;;;;4822461;29;20058;-71
2022/07/06 11:44:58;;;;;;;;;;;;;;;;;;4835063;29;20058;-71
2022/07/06 11:47:32;;;;;;;18.00;6.88;;;;;;;;;;4795504;29;19924;-71
2022/07/06 11:50:07;;;;;;;27.98;7.97;;;;;;;;;;4821976;29;20065;-71
2022/07/06 11:52:41;;;;;;;19.90;8.30;;;;;;;;;;4790876;29;20061;-71
2022/07/06 11:55:15;;;;;;;17.70;8.68;;;;;;;;;;4822102;29;20129;-72
2022/07/06 11:57:46;;;;;;;16.13;7.55;;;;;;;;;;4821973;29;20063;-71
2022/07/06 12:00:21;;;;;;;17.30;7.10;;;;;;;;;;4822328;29;20103;-71
2022/07/06 12:03:03;;;;;;;19.83;7.97;;;;;;;;;;4792598;29;20550;-71
2022/07/06 12:05:34;;;;;;;25.70;8.55;;;;;;;;;;4774735;30;20424;-72
2022/07/06 12:08:06;;;;;;;21.70;7.78;;;;;;;;;;4785815;30;20060;-72
2022/07/06 12:10:37;;;;;;;18.40;7.43;;;;;;;;;;4786061;30;20501;-72
2022/07/06 12:13:08;;;;;;;17.13;7.05;;;;;;;;;;4771832;30;20059;-73
2022/07/06 12:15:38;;;;;;;19.27;7.03;;;;;;;;;;4770504;29;20520;-73
2022/07/06 12:18:09;;;;;;;15.10;6.97;;;;;;;;;;4821797;29;20058;-73
2022/07/06 12:20:39;;;;;;;14.15;6.72;;;;;;;;;;4807228;29;20062;-73
2022/07/06 12:23:09;;;;;;;23.58;7.32;;;;;;;;;;4821956;29;20074;-73
2022/07/06 12:25:39;;;;;;;16.85;6.35;;;;;;;;;;4792267;29;20062;-73
2022/07/06 12:28:22;;;;;;;13.65;5.72;;;;;;;;;;4821841;29;20094;-73
2022/07/06 12:30:53;;;;;;;14.38;5.70;;;;;;;;;;4803441;29;20062;-73
2022/07/06 12:33:24;;;;;;;13.70;5.97;;;;;;;;;;4803730;29;20051;-73
2022/07/06 12:35:55;;;;;;;13.55;5.65;;;;;;;;;;4827097;29;20054;-73
2022/07/06 12:38:27;;;;;;;12.52;5.72;;;;;;;;;;4839903;29;20054;-73
2022/07/06 12:40:58;;;;;;;13.57;5.93;;;;;;;;;;4839943;29;20053;-73
2022/07/06 12:43:39;;;;;;;16.70;7.32;;;;;;;;;;4851355;29;20045;-73
2022/07/06 12:46:45;;;;;;;12.77;6.95;;;;;;;;;;4858439;29;20232;-72
2022/07/06 12:49:19;;;;;;;21.30;7.70;;;;;;;;;;4821425;29;20055;-72
2022/07/06 12:51:53;;;;;;;18.25;6.20;;;;;;;;;;4821756;29;20069;-72
2022/07/06 12:54:26;;;;;;;15.63;6.93;;;;;;;;;;4821688;29;20058;-72
2022/07/06 12:56:57;;;;;;;12.68;5.88;;;;;;;;;;4803242;29;20066;-73
2022/07/06 12:59:29;;;;;;;12.00;5.80;;;;;;;;;;4803548;29;20047;-73
2022/07/06 13:02:00;;;;;;;10.50;5.45;;;;;;;;;;4803253;29;20063;-73
2022/07/06 13:04:32;;;;;;;22.08;10.40;;;;;;;;;;4803228;29;20062;-73
2022/07/06 13:07:04;;;;;;;14.52;6.35;;;;;;;;;;4788130;29;20062;-71
2022/07/06 13:09:36;;;;;;;12.40;4.68;;;;;;;;;;4786244;29;20058;-73
2022/07/06 13:12:07;;;;;;;14.57;5.78;;;;;;;;;;4784863;30;20056;-72
2022/07/06 13:14:37;;;;;;;10.48;4.30;;;;;;;;;;4785054;30;20064;-72
2022/07/06 13:17:07;;;;;;;17.73;7.50;;;;;;;;;;4749147;30;20069;-73
2022/07/06 13:19:38;;;;;;;10.30;3.60;;;;;;;;;;4749364;30;20067;-73
2022/07/06 13:22:08;;;;;;;14.35;6.57;;;;;;;;;;4740931;29;20421;-73
2022/07/06 13:24:39;;;;;;;16.38;6.95;;;;;;;;;;4857933;29;20049;-70
2022/07/06 13:27:10;;;;;;;7.38;2.47;;;;;;;;;;4857741;29;20053;-71
2022/07/06 13:29:40;;;;;;;5.35;1.40;;;;;;;;;;4811741;29;20132;-71
2022/07/06 13:32:10;;;;;;;8.45;3.28;;;;;;;;;;4857512;29;20418;-71
2022/07/06 13:34:41;;;;;;;11.90;5.13;;;;;;;;;;4857420;29;20384;-71
2022/07/06 13:37:11;;;;;;;8.25;2.97;;;;;;;;;;4826947;29;20471;-71
2022/07/06 13:39:41;;;;;;;3.65;1.35;;;;;;;;;;4857035;29;20064;-71
2022/07/06 13:42:11;;;;;;;5.30;1.38;;;;;;;;;;4857510;29;20069;-71
2022/07/06 13:44:42;;;;;;;4.75;1.45;;;;;;;;;;4857194;29;20574;-72
2022/07/06 13:47:12;;;;;;;4.82;1.23;;;;;;;;;;4857376;29;20053;-71
2022/07/06 13:49:43;;;;;;;5.40;1.52;;;;;;;;;;4842132;29;20064;-72
2022/07/06 13:52:14;;;;;;;2.58;1.13;;;;;;;;;;4827357;29;20058;-72
2022/07/06 13:54:44;;;;;;;3.35;1.15;;;;;;;;;;4850459;29;20127;-72
2022/07/06 13:57:15;;;;;;;4.03;1.00;;;;;;;;;;4896522;29;20409;-72
2022/07/06 13:59:46;;;;;;;9.77;1.73;;;;;;;;;;4896514;29;20051;-72
2022/07/06 14:02:16;;;;;;;4.68;1.38;;;;;;;;;;4896572;29;20059;-72
2022/07/06 14:04:47;;;;;;;2.72;1.02;;;;;;;;;;4896453;29;20040;-73
2022/07/06 14:07:18;;;;;;;9.93;1.30;;;;;;;;;;4895243;29;20075;-72
2022/07/06 14:09:51;;;;;;;4.45;1.30;;;;;;;;;;4896410;29;20052;-73
2022/07/06 14:12:23;;;;;;;2.92;0.85;;;;;;;;;;4893759;29;20405;-73
2022/07/06 14:14:54;;;;;;;10.18;1.15;;;;;;;;;;4893614;29;20665;-73
2022/07/06 14:17:25;;;;;;;5.97;1.30;;;;;;;;;;4894076;29;20079;-73
2022/07/06 14:19:55;;;;;;;2.85;0.90;;;;;;;;;;4894011;29;20185;-73
2022/07/06 14:22:25;;;;;;;5.03;1.33;;;;;;;;;;4893942;29;20068;-73
2022/07/06 14:24:55;;;;;;;3.35;0.85;;;;;;;;;;4893942;29;20056;-73
2022/07/06 14:27:26;;;;;;;5.25;1.05;;;;;;;;;;4894402;29;20068;-69
2022/07/06 14:29:57;;;;;;;9.15;1.30;;;;;;;;;;4871652;29;20158;-70
2022/07/06 14:32:27;;;;;;;3.97;0.85;;;;;;;;;;4824647;29;20077;-69
2022/07/06 14:34:57;;;;;;;4.55;1.00;;;;;;;;;;4865569;29;20064;-70
2022/07/06 14:37:27;;;;;;;3.78;1.05;;;;;;;;;;4856511;29;20659;-70
2022/07/06 14:39:58;;;;;;;3.60;1.10;;;;;;;;;;4872713;29;20510;-70
2022/07/06 14:42:29;;;;;;;5.30;1.15;;;;;;;;;;4868343;29;20064;-70
2022/07/06 14:44:59;;;;;;;4.63;1.15;;;;;;;;;;4867855;29;20045;-73
2022/07/06 14:47:29;;;;;;;8.20;1.05;;;;;;;;;;4865198;29;20064;-70
2022/07/06 14:49:59;;;;;;;2.97;0.93;;;;;;;;;;4866262;29;20037;-74
2022/07/06 14:52:30;;;;;;;3.83;1.20;;;;;;;;;;4865866;29;20049;-72
2022/07/06 14:55:00;;;;;;;4.97;1.20;;;;;;;;;;4837765;29;20466;-72
2022/07/06 14:57:30;;;;;;;4.10;1.08;;;;;;;;;;4850898;29;20054;-70
2022/07/06 15:00:01;;;;;;;2.33;1.17;;;;;;;;;;4837998;29;20438;-72
2022/07/06 15:02:31;;;;;;;4.35;1.13;;;;;;;;;;4792946;29;20062;-67
2022/07/06 15:05:02;;;;;;;8.20;1.10;;;;;;;;;;4822981;29;20121;-70
2022/07/06 15:07:33;;;;;;;3.05;0.90;;;;;;;;;;4847279;29;20498;-67
2022/07/06 15:10:05;;;;;;;3.65;0.80;;;;;;;;;;4856320;29;20406;-71
2022/07/06 15:12:35;;;;;;;3.40;0.95;;;;;;;;;;4810452;29;20057;-70